sensor_id;sensor_type;location;lat;lon;timestamp;P1;durP1;ratioP1;P2;durP2;ratioP2
23370;SDS011;11858;51.056;3.712;2024-03-08T00:00:07;14.98;;;14.07;;
23370;SDS011;11858;51.056;3.712;2024-03-08T00:02:37;15.00;;;14.10;;
23370;SDS011;11858;51.056;3.712;2024-03-08T00:05:07;16.63;;;15.52;;
23370;SDS011;11858;51.056;3.712;2024-03-08T00:07:40;16.02;;;15.10;;
23370;SDS011;11858;51.056;3.712;2024-03-08T00:10:07;16.58;;;15.25;;
23370;SDS011;11858;51.056;3.712;2024-03-08T00:12:36;14.50;;;13.70;;
23370;SDS011;11858;51.056;3.712;2024-03-08T00:15:03;15.50;;;14.57;;
23370;SDS011;11858;51.056;3.712;2024-03-08T00:17:31;14.88;;;14.05;;
23370;SDS011;11858;51.056;3.712;2024-03-08T00:19:57;16.55;;;15.45;;
23370;SDS011;11858;51.056;3.712;2024-03-08T00:22:22;14.10;;;13.30;;
23370;SDS011;11858;51.056;3.712;2024-03-08T00:24:48;15.27;;;14.27;;
23370;SDS011;11858;51.056;3.712;2024-03-08T00:27:16;15.73;;;14.73;;
23370;SDS011;11858;51.056;3.712;2024-03-08T00:29:46;19.95;;;17.02;;
23370;SDS011;11858;51.056;3.712;2024-03-08T00:32:12;15.50;;;14.60;;
23370;SDS011;11858;51.056;3.712;2024-03-08T00:34:38;15.35;;;14.45;;
23370;SDS011;11858;51.056;3.712;2024-03-08T00:37:04;17.92;;;15.98;;
23370;SDS011;11858;51.056;3.712;2024-03-08T00:39:30;13.70;;;12.90;;
23370;SDS011;11858;51.056;3.712;2024-03-08T00:41:57;14.00;;;13.20;;
23370;SDS011;11858;51.056;3.712;2024-03-08T00:44:22;14.15;;;13.07;;
23370;SDS011;11858;51.056;3.712;2024-03-08T00:46:49;13.55;;;12.75;;
23370;SDS011;11858;51.056;3.712;2024-03-08T00:49:15;13.57;;;12.73;;
23370;SDS011;11858;51.056;3.712;2024-03-08T00:51:41;13.07;;;12.27;;
23370;SDS011;11858;51.056;3.712;2024-03-08T00:54:08;13.85;;;12.82;;
23370;SDS011;11858;51.056;3.712;2024-03-08T00:56:34;13.30;;;12.45;;
23370;SDS011;11858;51.056;3.712;2024-03-08T00:59:00;11.20;;;10.60;;
23370;SDS011;11858;51.056;3.712;2024-03-08T01:01:27;11.02;;;10.43;;
23370;SDS011;11858;51.056;3.712;2024-03-08T01:03:53;10.90;;;10.30;;
23370;SDS011;11858;51.056;3.712;2024-03-08T01:06:19;10.02;;;9.48;;
23370;SDS011;11858;51.056;3.712;2024-03-08T01:08:45;13.05;;;11.85;;
23370;SDS011;11858;51.056;3.712;2024-03-08T01:11:12;10.60;;;10.00;;
23370;SDS011;11858;51.056;3.712;2024-03-08T01:13:39;10.15;;;9.55;;
23370;SDS011;11858;51.056;3.712;2024-03-08T01:16:05;9.65;;;9.15;;
23370;SDS011;11858;51.056;3.712;2024-03-08T01:18:31;10.35;;;9.75;;
23370;SDS011;11858;51.056;3.712;2024-03-08T01:20:57;13.93;;;11.70;;
23370;SDS011;11858;51.056;3.712;2024-03-08T01:23:22;9.32;;;8.82;;
23370;SDS011;11858;51.056;3.712;2024-03-08T01:25:49;8.98;;;8.45;;
23370;SDS011;11858;51.056;3.712;2024-03-08T01:28:22;7.80;;;7.40;;
23370;SDS011;11858;51.056;3.712;2024-03-08T01:30:49;8.30;;;7.65;;
23370;SDS011;11858;51.056;3.712;2024-03-08T01:33:20;8.35;;;7.85;;
23370;SDS011;11858;51.056;3.712;2024-03-08T01:35:53;9.88;;;9.07;;
23370;SDS011;11858;51.056;3.712;2024-03-08T01:38:19;10.65;;;10.05;;
23370;SDS011;11858;51.056;3.712;2024-03-08T01:40:46;7.60;;;7.20;;
23370;SDS011;11858;51.056;3.712;2024-03-08T01:43:19;9.98;;;9.15;;
23370;SDS011;11858;51.056;3.712;2024-03-08T01:45:53;9.68;;;8.45;;
23370;SDS011;11858;51.056;3.712;2024-03-08T01:48:24;13.20;;;12.05;;
23370;SDS011;11858;51.056;3.712;2024-03-08T01:50:51;7.75;;;7.35;;
23370;SDS011;11858;51.056;3.712;2024-03-08T01:53:19;8.02;;;7.63;;
23370;SDS011;11858;51.056;3.712;2024-03-08T01:55:46;9.13;;;8.43;;
23370;SDS011;11858;51.056;3.712;2024-03-08T01:58:14;9.02;;;8.52;;
23370;SDS011;11858;51.056;3.712;2024-03-08T02:00:43;8.23;;;7.82;;
23370;SDS011;11858;51.056;3.712;2024-03-08T02:05:38;9.75;;;9.25;;
23370;SDS011;11858;51.056;3.712;2024-03-08T02:08:06;9.13;;;8.63;;
23370;SDS011;11858;51.056;3.712;2024-03-08T02:10:35;9.13;;;8.63;;
23370;SDS011;11858;51.056;3.712;2024-03-08T02:13:01;9.82;;;9.25;;
23370;SDS011;11858;51.056;3.712;2024-03-08T02:18:19;10.35;;;9.70;;
23370;SDS011;11858;51.056;3.712;2024-03-08T02:20:47;9.35;;;8.85;;
23370;SDS011;11858;51.056;3.712;2024-03-08T02:23:23;12.25;;;11.00;;
23370;SDS011;11858;51.056;3.712;2024-03-08T02:25:52;9.93;;;9.32;;
23370;SDS011;11858;51.056;3.712;2024-03-08T02:28:19;9.13;;;8.63;;
23370;SDS011;11858;51.056;3.712;2024-03-08T02:30:46;8.85;;;8.35;;
23370;SDS011;11858;51.056;3.712;2024-03-08T02:33:15;11.90;;;10.88;;
23370;SDS011;11858;51.056;3.712;2024-03-08T02:35:45;14.87;;;12.67;;
23370;SDS011;11858;51.056;3.712;2024-03-08T02:38:12;10.30;;;9.60;;
23370;SDS011;11858;51.056;3.712;2024-03-08T02:40:43;10.30;;;9.77;;
23370;SDS011;11858;51.056;3.712;2024-03-08T02:43:11;10.43;;;9.82;;
23370;SDS011;11858;51.056;3.712;2024-03-08T02:45:37;11.05;;;10.43;;
23370;SDS011;11858;51.056;3.712;2024-03-08T02:48:03;23.15;;;12.18;;
23370;SDS011;11858;51.056;3.712;2024-03-08T02:50:31;12.27;;;11.07;;
23370;SDS011;11858;51.056;3.712;2024-03-08T02:52:58;18.02;;;15.10;;
23370;SDS011;11858;51.056;3.712;2024-03-08T02:55:24;13.85;;;12.80;;
23370;SDS011;11858;51.056;3.712;2024-03-08T02:57:51;12.65;;;11.50;;
23370;SDS011;11858;51.056;3.712;2024-03-08T03:00:17;12.57;;;11.80;;
23370;SDS011;11858;51.056;3.712;2024-03-08T03:02:44;12.55;;;11.27;;
23370;SDS011;11858;51.056;3.712;2024-03-08T03:05:11;14.50;;;13.32;;
23370;SDS011;11858;51.056;3.712;2024-03-08T03:07:37;12.50;;;11.63;;
23370;SDS011;11858;51.056;3.712;2024-03-08T03:10:03;11.77;;;11.07;;
23370;SDS011;11858;51.056;3.712;2024-03-08T03:12:30;13.32;;;12.38;;
23370;SDS011;11858;51.056;3.712;2024-03-08T03:14:56;14.40;;;13.52;;
23370;SDS011;11858;51.056;3.712;2024-03-08T03:17:24;12.43;;;11.63;;
23370;SDS011;11858;51.056;3.712;2024-03-08T03:19:50;12.73;;;11.95;;
23370;SDS011;11858;51.056;3.712;2024-03-08T03:22:19;11.43;;;10.82;;
23370;SDS011;11858;51.056;3.712;2024-03-08T03:24:45;13.80;;;12.65;;
23370;SDS011;11858;51.056;3.712;2024-03-08T03:27:12;12.48;;;11.75;;
23370;SDS011;11858;51.056;3.712;2024-03-08T03:29:39;13.75;;;12.70;;
23370;SDS011;11858;51.056;3.712;2024-03-08T03:32:07;12.25;;;11.55;;
23370;SDS011;11858;51.056;3.712;2024-03-08T03:34:33;12.75;;;12.05;;
23370;SDS011;11858;51.056;3.712;2024-03-08T03:37:03;12.15;;;11.45;;
23370;SDS011;11858;51.056;3.712;2024-03-08T03:39:29;13.80;;;12.90;;
23370;SDS011;11858;51.056;3.712;2024-03-08T03:41:59;13.13;;;12.33;;
23370;SDS011;11858;51.056;3.712;2024-03-08T03:44:27;14.60;;;13.75;;
23370;SDS011;11858;51.056;3.712;2024-03-08T03:46:53;13.90;;;13.05;;
23370;SDS011;11858;51.056;3.712;2024-03-08T03:49:19;15.23;;;14.23;;
23370;SDS011;11858;51.056;3.712;2024-03-08T03:51:45;15.18;;;14.00;;
23370;SDS011;11858;51.056;3.712;2024-03-08T03:54:12;12.48;;;11.77;;
23370;SDS011;11858;51.056;3.712;2024-03-08T03:56:38;13.75;;;12.75;;
23370;SDS011;11858;51.056;3.712;2024-03-08T03:59:05;14.57;;;13.65;;
23370;SDS011;11858;51.056;3.712;2024-03-08T04:01:32;20.40;;;13.45;;
23370;SDS011;11858;51.056;3.712;2024-03-08T04:03:58;18.35;;;17.35;;
23370;SDS011;11858;51.056;3.712;2024-03-08T04:06:24;17.52;;;16.52;;
23370;SDS011;11858;51.056;3.712;2024-03-08T04:08:50;19.90;;;18.25;;
23370;SDS011;11858;51.056;3.712;2024-03-08T04:11:15;17.25;;;16.25;;
23370;SDS011;11858;51.056;3.712;2024-03-08T04:13:44;17.83;;;16.80;;
23370;SDS011;11858;51.056;3.712;2024-03-08T04:16:10;20.75;;;18.73;;
23370;SDS011;11858;51.056;3.712;2024-03-08T04:18:36;17.05;;;16.15;;
23370;SDS011;11858;51.056;3.712;2024-03-08T04:21:04;19.45;;;18.00;;
23370;SDS011;11858;51.056;3.712;2024-03-08T04:23:32;20.38;;;18.75;;
23370;SDS011;11858;51.056;3.712;2024-03-08T04:26:00;19.20;;;18.00;;
23370;SDS011;11858;51.056;3.712;2024-03-08T04:28:31;17.75;;;16.75;;
23370;SDS011;11858;51.056;3.712;2024-03-08T04:30:57;18.30;;;17.15;;
23370;SDS011;11858;51.056;3.712;2024-03-08T04:33:23;17.02;;;16.10;;
23370;SDS011;11858;51.056;3.712;2024-03-08T04:35:48;17.80;;;16.80;;
23370;SDS011;11858;51.056;3.712;2024-03-08T04:38:14;19.00;;;17.40;;
23370;SDS011;11858;51.056;3.712;2024-03-08T04:40:40;18.13;;;16.88;;
23370;SDS011;11858;51.056;3.712;2024-03-08T04:43:07;20.55;;;19.15;;
23370;SDS011;11858;51.056;3.712;2024-03-08T04:45:33;16.92;;;16.00;;
23370;SDS011;11858;51.056;3.712;2024-03-08T04:47:59;20.02;;;18.60;;
23370;SDS011;11858;51.056;3.712;2024-03-08T04:50:25;17.65;;;16.55;;
23370;SDS011;11858;51.056;3.712;2024-03-08T04:52:54;17.60;;;16.60;;
23370;SDS011;11858;51.056;3.712;2024-03-08T04:55:20;17.98;;;16.98;;
23370;SDS011;11858;51.056;3.712;2024-03-08T04:57:47;21.30;;;19.70;;
23370;SDS011;11858;51.056;3.712;2024-03-08T05:00:13;22.40;;;20.55;;
23370;SDS011;11858;51.056;3.712;2024-03-08T05:02:40;18.88;;;17.67;;
23370;SDS011;11858;51.056;3.712;2024-03-08T05:05:07;19.13;;;18.00;;
23370;SDS011;11858;51.056;3.712;2024-03-08T05:07:42;19.67;;;18.38;;
23370;SDS011;11858;51.056;3.712;2024-03-08T05:10:10;16.20;;;15.20;;
23370;SDS011;11858;51.056;3.712;2024-03-08T05:12:36;16.58;;;15.68;;
23370;SDS011;11858;51.056;3.712;2024-03-08T05:15:05;15.52;;;14.60;;
23370;SDS011;11858;51.056;3.712;2024-03-08T05:17:32;12.77;;;12.07;;
23370;SDS011;11858;51.056;3.712;2024-03-08T05:19:58;17.58;;;16.27;;
23370;SDS011;11858;51.056;3.712;2024-03-08T05:22:24;13.45;;;12.55;;
23370;SDS011;11858;51.056;3.712;2024-03-08T05:24:51;13.18;;;12.45;;
23370;SDS011;11858;51.056;3.712;2024-03-08T05:27:16;12.82;;;12.02;;
23370;SDS011;11858;51.056;3.712;2024-03-08T05:29:42;17.83;;;16.15;;
23370;SDS011;11858;51.056;3.712;2024-03-08T05:32:08;12.63;;;11.82;;
23370;SDS011;11858;51.056;3.712;2024-03-08T05:34:35;14.32;;;13.30;;
23370;SDS011;11858;51.056;3.712;2024-03-08T05:37:01;13.35;;;12.45;;
23370;SDS011;11858;51.056;3.712;2024-03-08T05:39:27;13.40;;;12.60;;
23370;SDS011;11858;51.056;3.712;2024-03-08T05:41:53;30.55;;;22.77;;
23370;SDS011;11858;51.056;3.712;2024-03-08T05:44:20;13.77;;;12.98;;
23370;SDS011;11858;51.056;3.712;2024-03-08T05:46:46;14.02;;;12.75;;
23370;SDS011;11858;51.056;3.712;2024-03-08T05:49:12;14.82;;;13.82;;
23370;SDS011;11858;51.056;3.712;2024-03-08T05:51:38;11.75;;;11.05;;
23370;SDS011;11858;51.056;3.712;2024-03-08T05:54:09;12.25;;;11.55;;
23370;SDS011;11858;51.056;3.712;2024-03-08T05:56:36;14.48;;;13.25;;
23370;SDS011;11858;51.056;3.712;2024-03-08T05:59:03;14.35;;;13.45;;
23370;SDS011;11858;51.056;3.712;2024-03-08T06:01:29;15.57;;;14.32;;
23370;SDS011;11858;51.056;3.712;2024-03-08T06:04:01;13.00;;;11.95;;
23370;SDS011;11858;51.056;3.712;2024-03-08T06:06:27;14.95;;;13.95;;
23370;SDS011;11858;51.056;3.712;2024-03-08T06:08:53;17.98;;;16.30;;
23370;SDS011;11858;51.056;3.712;2024-03-08T06:11:21;15.23;;;13.73;;
23370;SDS011;11858;51.056;3.712;2024-03-08T06:13:48;11.93;;;11.30;;
23370;SDS011;11858;51.056;3.712;2024-03-08T06:16:15;12.65;;;11.85;;
23370;SDS011;11858;51.056;3.712;2024-03-08T06:18:41;11.45;;;10.85;;
23370;SDS011;11858;51.056;3.712;2024-03-08T06:21:06;11.85;;;11.15;;
23370;SDS011;11858;51.056;3.712;2024-03-08T06:23:41;14.27;;;12.82;;
23370;SDS011;11858;51.056;3.712;2024-03-08T06:26:09;16.10;;;11.18;;
23370;SDS011;11858;51.056;3.712;2024-03-08T06:28:35;10.55;;;9.95;;
23370;SDS011;11858;51.056;3.712;2024-03-08T06:31:02;10.98;;;10.32;;
23370;SDS011;11858;51.056;3.712;2024-03-08T06:33:28;11.13;;;10.52;;
23370;SDS011;11858;51.056;3.712;2024-03-08T06:35:54;12.70;;;11.85;;
23370;SDS011;11858;51.056;3.712;2024-03-08T06:38:25;13.07;;;12.20;;
23370;SDS011;11858;51.056;3.712;2024-03-08T06:40:52;12.13;;;11.43;;
23370;SDS011;11858;51.056;3.712;2024-03-08T06:43:18;11.40;;;10.80;;
23370;SDS011;11858;51.056;3.712;2024-03-08T06:45:47;10.73;;;10.13;;
23370;SDS011;11858;51.056;3.712;2024-03-08T06:48:16;18.33;;;15.25;;
23370;SDS011;11858;51.056;3.712;2024-03-08T06:50:46;11.43;;;10.80;;
23370;SDS011;11858;51.056;3.712;2024-03-08T06:53:14;12.38;;;11.68;;
23370;SDS011;11858;51.056;3.712;2024-03-08T06:55:41;11.02;;;10.43;;
23370;SDS011;11858;51.056;3.712;2024-03-08T06:58:07;11.80;;;11.20;;
23370;SDS011;11858;51.056;3.712;2024-03-08T07:00:33;11.88;;;11.27;;
23370;SDS011;11858;51.056;3.712;2024-03-08T07:02:59;11.73;;;11.13;;
23370;SDS011;11858;51.056;3.712;2024-03-08T07:05:28;11.93;;;11.32;;
23370;SDS011;11858;51.056;3.712;2024-03-08T07:07:54;14.68;;;12.15;;
23370;SDS011;11858;51.056;3.712;2024-03-08T07:10:21;15.10;;;13.82;;
23370;SDS011;11858;51.056;3.712;2024-03-08T07:12:49;12.45;;;11.75;;
23370;SDS011;11858;51.056;3.712;2024-03-08T07:15:16;14.45;;;13.45;;
23370;SDS011;11858;51.056;3.712;2024-03-08T07:17:44;12.95;;;12.15;;
23370;SDS011;11858;51.056;3.712;2024-03-08T07:20:13;13.63;;;12.82;;
23370;SDS011;11858;51.056;3.712;2024-03-08T07:22:41;15.98;;;14.85;;
23370;SDS011;11858;51.056;3.712;2024-03-08T07:25:07;16.83;;;15.55;;
23370;SDS011;11858;51.056;3.712;2024-03-08T07:27:48;16.67;;;15.25;;
23370;SDS011;11858;51.056;3.712;2024-03-08T07:30:14;14.73;;;13.82;;
23370;SDS011;11858;51.056;3.712;2024-03-08T07:33:00;15.13;;;14.30;;
23370;SDS011;11858;51.056;3.712;2024-03-08T07:35:27;20.02;;;18.20;;
23370;SDS011;11858;51.056;3.712;2024-03-08T07:37:54;17.63;;;16.45;;
23370;SDS011;11858;51.056;3.712;2024-03-08T07:40:20;16.17;;;15.27;;
23370;SDS011;11858;51.056;3.712;2024-03-08T07:42:48;28.92;;;22.98;;
23370;SDS011;11858;51.056;3.712;2024-03-08T07:45:17;17.10;;;16.10;;
23370;SDS011;11858;51.056;3.712;2024-03-08T07:47:43;17.83;;;16.77;;
23370;SDS011;11858;51.056;3.712;2024-03-08T07:50:09;19.27;;;17.92;;
23370;SDS011;11858;51.056;3.712;2024-03-08T07:52:35;17.33;;;16.33;;
23370;SDS011;11858;51.056;3.712;2024-03-08T07:55:04;18.38;;;17.27;;
23370;SDS011;11858;51.056;3.712;2024-03-08T07:57:31;21.65;;;18.23;;
23370;SDS011;11858;51.056;3.712;2024-03-08T07:59:57;19.38;;;17.85;;
23370;SDS011;11858;51.056;3.712;2024-03-08T08:02:23;22.00;;;19.38;;
23370;SDS011;11858;51.056;3.712;2024-03-08T08:04:49;21.77;;;19.83;;
23370;SDS011;11858;51.056;3.712;2024-03-08T08:07:14;16.50;;;15.60;;
23370;SDS011;11858;51.056;3.712;2024-03-08T08:09:41;18.40;;;17.15;;
23370;SDS011;11858;51.056;3.712;2024-03-08T08:12:10;18.55;;;17.45;;
23370;SDS011;11858;51.056;3.712;2024-03-08T08:14:39;19.05;;;17.85;;
23370;SDS011;11858;51.056;3.712;2024-03-08T08:17:06;16.80;;;15.80;;
23370;SDS011;11858;51.056;3.712;2024-03-08T08:19:33;18.30;;;17.20;;
23370;SDS011;11858;51.056;3.712;2024-03-08T08:22:00;17.85;;;16.58;;
23370;SDS011;11858;51.056;3.712;2024-03-08T08:24:27;19.73;;;18.17;;
23370;SDS011;11858;51.056;3.712;2024-03-08T08:26:53;18.23;;;17.10;;
23370;SDS011;11858;51.056;3.712;2024-03-08T08:29:19;19.48;;;18.20;;
23370;SDS011;11858;51.056;3.712;2024-03-08T08:31:48;20.02;;;18.08;;
23370;SDS011;11858;51.056;3.712;2024-03-08T08:34:15;20.00;;;18.65;;
23370;SDS011;11858;51.056;3.712;2024-03-08T08:36:44;19.60;;;18.08;;
23370;SDS011;11858;51.056;3.712;2024-03-08T08:39:10;17.27;;;16.27;;
23370;SDS011;11858;51.056;3.712;2024-03-08T08:41:38;21.30;;;19.48;;
23370;SDS011;11858;51.056;3.712;2024-03-08T08:44:06;18.15;;;17.05;;
23370;SDS011;11858;51.056;3.712;2024-03-08T08:46:38;17.58;;;16.48;;
23370;SDS011;11858;51.056;3.712;2024-03-08T08:49:04;17.40;;;16.40;;
23370;SDS011;11858;51.056;3.712;2024-03-08T08:51:31;17.55;;;16.48;;
23370;SDS011;11858;51.056;3.712;2024-03-08T08:54:00;18.98;;;17.80;;
23370;SDS011;11858;51.056;3.712;2024-03-08T08:56:26;21.65;;;19.65;;
23370;SDS011;11858;51.056;3.712;2024-03-08T08:58:53;17.13;;;16.10;;
23370;SDS011;11858;51.056;3.712;2024-03-08T09:01:19;22.05;;;20.48;;
23370;SDS011;11858;51.056;3.712;2024-03-08T09:03:45;19.83;;;18.30;;
23370;SDS011;11858;51.056;3.712;2024-03-08T09:06:12;17.88;;;16.70;;
23370;SDS011;11858;51.056;3.712;2024-03-08T09:08:41;17.73;;;16.52;;
23370;SDS011;11858;51.056;3.712;2024-03-08T09:11:07;17.27;;;16.27;;
23370;SDS011;11858;51.056;3.712;2024-03-08T09:13:33;17.10;;;15.90;;
23370;SDS011;11858;51.056;3.712;2024-03-08T09:15:59;16.10;;;15.10;;
23370;SDS011;11858;51.056;3.712;2024-03-08T09:18:25;18.50;;;17.30;;
23370;SDS011;11858;51.056;3.712;2024-03-08T09:20:51;17.08;;;15.88;;
23370;SDS011;11858;51.056;3.712;2024-03-08T09:23:21;17.05;;;15.68;;
23370;SDS011;11858;51.056;3.712;2024-03-08T09:25:47;18.40;;;17.17;;
23370;SDS011;11858;51.056;3.712;2024-03-08T09:28:13;18.48;;;17.30;;
23370;SDS011;11858;51.056;3.712;2024-03-08T09:30:39;20.00;;;18.05;;
23370;SDS011;11858;51.056;3.712;2024-03-08T09:33:05;17.63;;;16.25;;
23370;SDS011;11858;51.056;3.712;2024-03-08T09:35:32;20.60;;;18.52;;
23370;SDS011;11858;51.056;3.712;2024-03-08T09:37:58;20.70;;;18.65;;
23370;SDS011;11858;51.056;3.712;2024-03-08T09:40:24;18.55;;;16.95;;
23370;SDS011;11858;51.056;3.712;2024-03-08T09:42:50;15.30;;;14.48;;
23370;SDS011;11858;51.056;3.712;2024-03-08T09:45:17;18.58;;;17.15;;
23370;SDS011;11858;51.056;3.712;2024-03-08T09:47:49;17.80;;;16.33;;
23370;SDS011;11858;51.056;3.712;2024-03-08T09:50:16;17.27;;;16.05;;
23370;SDS011;11858;51.056;3.712;2024-03-08T09:52:43;18.50;;;17.35;;
23370;SDS011;11858;51.056;3.712;2024-03-08T09:55:11;16.58;;;15.48;;
23370;SDS011;11858;51.056;3.712;2024-03-08T09:57:37;17.77;;;16.27;;
23370;SDS011;11858;51.056;3.712;2024-03-08T10:00:04;18.52;;;17.30;;
23370;SDS011;11858;51.056;3.712;2024-03-08T10:02:48;19.60;;;17.75;;
23370;SDS011;11858;51.056;3.712;2024-03-08T10:05:17;16.73;;;15.68;;
23370;SDS011;11858;51.056;3.712;2024-03-08T10:07:43;16.00;;;15.10;;
23370;SDS011;11858;51.056;3.712;2024-03-08T10:10:09;20.85;;;18.90;;
23370;SDS011;11858;51.056;3.712;2024-03-08T10:12:37;16.73;;;15.55;;
23370;SDS011;11858;51.056;3.712;2024-03-08T10:15:07;33.55;;;18.40;;
23370;SDS011;11858;51.056;3.712;2024-03-08T10:17:34;21.45;;;19.23;;
23370;SDS011;11858;51.056;3.712;2024-03-08T10:20:01;18.45;;;17.02;;
23370;SDS011;11858;51.056;3.712;2024-03-08T10:22:28;17.27;;;16.08;;
23370;SDS011;11858;51.056;3.712;2024-03-08T10:24:55;17.15;;;15.95;;
23370;SDS011;11858;51.056;3.712;2024-03-08T10:27:21;18.20;;;16.58;;
23370;SDS011;11858;51.056;3.712;2024-03-08T10:29:47;15.55;;;14.65;;
23370;SDS011;11858;51.056;3.712;2024-03-08T10:32:13;21.42;;;19.30;;
23370;SDS011;11858;51.056;3.712;2024-03-08T10:34:39;17.35;;;16.15;;
23370;SDS011;11858;51.056;3.712;2024-03-08T10:37:07;18.02;;;16.40;;
23370;SDS011;11858;51.056;3.712;2024-03-08T10:39:38;15.82;;;14.93;;
23370;SDS011;11858;51.056;3.712;2024-03-08T10:42:13;16.50;;;15.50;;
23370;SDS011;11858;51.056;3.712;2024-03-08T10:44:54;16.30;;;15.40;;
23370;SDS011;11858;51.056;3.712;2024-03-08T10:47:31;18.35;;;17.08;;
23370;SDS011;11858;51.056;3.712;2024-03-08T10:50:19;16.67;;;15.68;;
23370;SDS011;11858;51.056;3.712;2024-03-08T10:52:48;18.25;;;16.77;;
23370;SDS011;11858;51.056;3.712;2024-03-08T10:55:15;21.45;;;19.52;;
23370;SDS011;11858;51.056;3.712;2024-03-08T10:57:42;16.92;;;15.93;;
23370;SDS011;11858;51.056;3.712;2024-03-08T11:00:08;21.67;;;19.83;;
23370;SDS011;11858;51.056;3.712;2024-03-08T11:02:36;18.75;;;17.40;;
23370;SDS011;11858;51.056;3.712;2024-03-08T11:05:07;17.65;;;16.50;;
23370;SDS011;11858;51.056;3.712;2024-03-08T11:07:40;18.92;;;17.40;;
23370;SDS011;11858;51.056;3.712;2024-03-08T11:10:18;20.40;;;18.77;;
23370;SDS011;11858;51.056;3.712;2024-03-08T11:12:44;19.65;;;18.10;;
23370;SDS011;11858;51.056;3.712;2024-03-08T11:15:13;17.85;;;16.75;;
23370;SDS011;11858;51.056;3.712;2024-03-08T11:17:40;18.77;;;17.45;;
23370;SDS011;11858;51.056;3.712;2024-03-08T11:20:13;16.42;;;15.52;;
23370;SDS011;11858;51.056;3.712;2024-03-08T11:22:41;19.15;;;17.75;;
23370;SDS011;11858;51.056;3.712;2024-03-08T11:28:08;17.13;;;16.13;;
23370;SDS011;11858;51.056;3.712;2024-03-08T11:30:44;24.33;;;21.92;;
23370;SDS011;11858;51.056;3.712;2024-03-08T11:33:13;15.98;;;15.07;;
23370;SDS011;11858;51.056;3.712;2024-03-08T11:35:41;23.70;;;20.98;;
23370;SDS011;11858;51.056;3.712;2024-03-08T11:38:08;16.70;;;15.70;;
23370;SDS011;11858;51.056;3.712;2024-03-08T11:40:35;18.85;;;17.27;;
23370;SDS011;11858;51.056;3.712;2024-03-08T11:43:01;21.10;;;19.25;;
23370;SDS011;11858;51.056;3.712;2024-03-08T11:45:33;18.48;;;17.17;;
23370;SDS011;11858;51.056;3.712;2024-03-08T11:48:01;17.02;;;15.75;;
23370;SDS011;11858;51.056;3.712;2024-03-08T11:50:29;18.60;;;16.98;;
23370;SDS011;11858;51.056;3.712;2024-03-08T11:53:00;17.65;;;16.05;;
23370;SDS011;11858;51.056;3.712;2024-03-08T11:55:27;17.60;;;16.42;;
23370;SDS011;11858;51.056;3.712;2024-03-08T11:58:03;17.23;;;16.02;;
23370;SDS011;11858;51.056;3.712;2024-03-08T12:00:30;17.13;;;16.00;;
23370;SDS011;11858;51.056;3.712;2024-03-08T12:03:04;16.35;;;15.40;;
23370;SDS011;11858;51.056;3.712;2024-03-08T12:05:32;17.83;;;16.20;;
23370;SDS011;11858;51.056;3.712;2024-03-08T12:07:59;16.60;;;15.50;;
23370;SDS011;11858;51.056;3.712;2024-03-08T12:10:25;17.52;;;16.33;;
23370;SDS011;11858;51.056;3.712;2024-03-08T12:12:55;16.60;;;15.55;;
23370;SDS011;11858;51.056;3.712;2024-03-08T12:15:24;20.08;;;18.40;;
23370;SDS011;11858;51.056;3.712;2024-03-08T12:17:51;17.98;;;16.73;;
23370;SDS011;11858;51.056;3.712;2024-03-08T12:20:22;16.90;;;15.60;;
23370;SDS011;11858;51.056;3.712;2024-03-08T12:22:54;18.13;;;16.77;;
23370;SDS011;11858;51.056;3.712;2024-03-08T12:25:25;17.20;;;16.13;;
23370;SDS011;11858;51.056;3.712;2024-03-08T12:27:52;18.03;;;16.77;;
23370;SDS011;11858;51.056;3.712;2024-03-08T12:30:22;18.10;;;16.90;;
23370;SDS011;11858;51.056;3.712;2024-03-08T12:32:53;17.30;;;16.20;;
23370;SDS011;11858;51.056;3.712;2024-03-08T12:35:21;16.88;;;15.68;;
23370;SDS011;11858;51.056;3.712;2024-03-08T12:37:49;15.93;;;15.00;;
23370;SDS011;11858;51.056;3.712;2024-03-08T12:40:18;20.48;;;18.90;;
23370;SDS011;11858;51.056;3.712;2024-03-08T12:42:44;16.48;;;15.40;;
23370;SDS011;11858;51.056;3.712;2024-03-08T12:45:12;18.15;;;16.88;;
23370;SDS011;11858;51.056;3.712;2024-03-08T12:47:39;17.25;;;15.93;;
23370;SDS011;11858;51.056;3.712;2024-03-08T12:50:07;16.98;;;15.73;;
23370;SDS011;11858;51.056;3.712;2024-03-08T12:52:34;17.52;;;16.42;;
23370;SDS011;11858;51.056;3.712;2024-03-08T12:55:01;17.67;;;16.45;;
23370;SDS011;11858;51.056;3.712;2024-03-08T12:57:28;16.70;;;15.70;;
23370;SDS011;11858;51.056;3.712;2024-03-08T12:59:56;18.15;;;16.95;;
23370;SDS011;11858;51.056;3.712;2024-03-08T13:02:22;18.00;;;16.80;;
23370;SDS011;11858;51.056;3.712;2024-03-08T13:04:49;18.95;;;17.75;;
23370;SDS011;11858;51.056;3.712;2024-03-08T13:07:23;16.88;;;15.75;;
23370;SDS011;11858;51.056;3.712;2024-03-08T13:09:54;25.70;;;18.58;;
23370;SDS011;11858;51.056;3.712;2024-03-08T13:12:23;18.53;;;17.20;;
23370;SDS011;11858;51.056;3.712;2024-03-08T13:14:49;17.58;;;16.38;;
23370;SDS011;11858;51.056;3.712;2024-03-08T13:17:15;17.10;;;15.98;;
23370;SDS011;11858;51.056;3.712;2024-03-08T13:19:43;16.80;;;15.80;;
23370;SDS011;11858;51.056;3.712;2024-03-08T13:22:09;17.90;;;16.70;;
23370;SDS011;11858;51.056;3.712;2024-03-08T13:24:41;16.10;;;15.20;;
23370;SDS011;11858;51.056;3.712;2024-03-08T13:27:10;16.33;;;15.18;;
23370;SDS011;11858;51.056;3.712;2024-03-08T13:29:48;16.33;;;15.38;;
23370;SDS011;11858;51.056;3.712;2024-03-08T13:32:17;16.08;;;15.07;;
23370;SDS011;11858;51.056;3.712;2024-03-08T13:34:45;17.48;;;16.48;;
23370;SDS011;11858;51.056;3.712;2024-03-08T13:37:12;16.40;;;15.30;;
23370;SDS011;11858;51.056;3.712;2024-03-08T13:39:41;16.70;;;15.70;;
23370;SDS011;11858;51.056;3.712;2024-03-08T13:42:15;17.15;;;16.02;;
23370;SDS011;11858;51.056;3.712;2024-03-08T13:44:45;17.75;;;16.55;;
23370;SDS011;11858;51.056;3.712;2024-03-08T13:47:14;17.13;;;16.03;;
23370;SDS011;11858;51.056;3.712;2024-03-08T13:49:43;16.50;;;15.38;;
23370;SDS011;11858;51.056;3.712;2024-03-08T13:52:10;17.25;;;16.05;;
23370;SDS011;11858;51.056;3.712;2024-03-08T13:54:37;19.30;;;17.75;;
23370;SDS011;11858;51.056;3.712;2024-03-08T13:57:04;16.50;;;15.50;;
23370;SDS011;11858;51.056;3.712;2024-03-08T13:59:33;15.63;;;14.73;;
23370;SDS011;11858;51.056;3.712;2024-03-08T14:02:00;18.05;;;16.75;;
23370;SDS011;11858;51.056;3.712;2024-03-08T14:04:30;16.65;;;15.55;;
23370;SDS011;11858;51.056;3.712;2024-03-08T14:06:56;16.92;;;15.85;;
23370;SDS011;11858;51.056;3.712;2024-03-08T14:09:26;17.25;;;16.13;;
23370;SDS011;11858;51.056;3.712;2024-03-08T14:11:54;17.42;;;16.25;;
23370;SDS011;11858;51.056;3.712;2024-03-08T14:14:23;17.65;;;16.45;;
23370;SDS011;11858;51.056;3.712;2024-03-08T14:16:49;17.42;;;16.10;;
23370;SDS011;11858;51.056;3.712;2024-03-08T14:19:19;16.30;;;15.33;;
23370;SDS011;11858;51.056;3.712;2024-03-08T14:21:45;16.67;;;15.68;;
23370;SDS011;11858;51.056;3.712;2024-03-08T14:24:13;16.85;;;15.85;;
23370;SDS011;11858;51.056;3.712;2024-03-08T14:26:40;17.48;;;16.27;;
23370;SDS011;11858;51.056;3.712;2024-03-08T14:29:07;17.80;;;16.25;;
23370;SDS011;11858;51.056;3.712;2024-03-08T14:31:35;17.40;;;15.90;;
23370;SDS011;11858;51.056;3.712;2024-03-08T14:34:01;28.73;;;18.92;;